createdAt,value
2023-05-05T00:01:35.807Z,2.15
2023-05-05T00:04:03.172Z,2.70
2023-05-05T00:06:31.228Z,2.05
2023-05-05T00:08:58.463Z,2.15
2023-05-05T00:11:26.035Z,2.08
2023-05-05T00:13:53.431Z,2.30
2023-05-05T00:16:20.734Z,1.75
2023-05-05T00:18:47.965Z,2.53
2023-05-05T00:21:15.752Z,2.00
2023-05-05T00:23:43.071Z,1.92
2023-05-05T00:26:10.351Z,2.13
2023-05-05T00:28:38.598Z,2.53
2023-05-05T00:31:06.385Z,2.63
2023-05-05T00:33:33.643Z,4.20
2023-05-05T00:36:00.879Z,2.00
2023-05-05T00:38:27.738Z,2.63
2023-05-05T00:40:54.971Z,1.75
2023-05-05T00:43:22.128Z,2.00
2023-05-05T00:45:59.585Z,2.10
2023-05-05T00:48:27.066Z,5.00
2023-05-05T00:50:54.298Z,2.00
2023-05-05T00:53:21.266Z,2.13
2023-05-05T00:55:48.534Z,1.70
2023-05-05T00:58:15.475Z,2.47
2023-05-05T01:00:42.868Z,2.65
2023-05-05T01:03:09.782Z,2.80
2023-05-05T01:05:43.469Z,2.20
2023-05-05T01:08:29.670Z,2.08
2023-05-05T01:11:08.478Z,2.30
2023-05-05T01:14:10.521Z,2.33
2023-05-05T01:16:44.039Z,2.30
2023-05-05T01:19:26.235Z,2.90
2023-05-05T01:22:07.100Z,2.88
2023-05-05T01:24:46.162Z,1.70
2023-05-05T01:27:32.090Z,2.17
2023-05-05T01:30:23.845Z,2.35
2023-05-05T01:33:00.758Z,2.23
2023-05-05T01:35:32.998Z,2.80
2023-05-05T01:38:08.290Z,2.57
2023-05-05T01:40:45.033Z,2.38
2023-05-05T01:43:15.164Z,3.10
2023-05-05T01:45:44.818Z,1.90
2023-05-05T01:48:14.744Z,2.78
2023-05-05T01:50:43.471Z,2.30
2023-05-05T01:53:11.478Z,2.60
2023-05-05T01:55:39.736Z,3.03
2023-05-05T01:58:08.090Z,2.70
2023-05-05T02:00:35.235Z,2.20
2023-05-05T02:03:04.794Z,1.77
2023-05-05T02:05:33.702Z,2.42
2023-05-05T02:08:01.087Z,2.70
2023-05-05T02:10:28.487Z,2.58
2023-05-05T02:12:56.508Z,2.15
2023-05-05T02:15:24.832Z,2.10
2023-05-05T02:17:52.882Z,1.65
2023-05-05T02:20:21.188Z,4.05
2023-05-05T02:22:48.981Z,3.40
2023-05-05T02:25:17.924Z,2.78
2023-05-05T02:27:47.119Z,3.45
2023-05-05T02:30:18.061Z,2.00
2023-05-05T02:32:59.978Z,2.23
2023-05-05T02:35:36.460Z,2.40
2023-05-05T02:38:06.283Z,2.75
2023-05-05T02:40:41.925Z,2.10
2023-05-05T02:43:11.730Z,2.00
2023-05-05T02:45:39.122Z,2.17
2023-05-05T02:48:07.040Z,1.88
2023-05-05T02:50:38.601Z,3.17
2023-05-05T02:53:19.735Z,2.40
2023-05-05T02:55:56.162Z,1.75
2023-05-05T02:58:41.435Z,3.00
2023-05-05T03:01:40.124Z,1.83
2023-05-05T03:04:15.366Z,1.52
2023-05-05T03:06:51.047Z,1.85
2023-05-05T03:09:41.448Z,2.35
2023-05-05T03:12:16.876Z,1.47
2023-05-05T03:14:58.680Z,1.52
2023-05-05T03:17:30.801Z,1.70
2023-05-05T03:19:59.497Z,2.30
2023-05-05T03:22:27.772Z,3.13
2023-05-05T03:24:55.250Z,2.30
2023-05-05T03:27:24.171Z,1.75
2023-05-05T03:29:52.065Z,2.93
2023-05-05T03:32:19.684Z,3.22
2023-05-05T03:34:46.737Z,1.88
2023-05-05T03:37:13.490Z,2.45
2023-05-05T03:39:42.073Z,2.95
2023-05-05T03:42:10.605Z,1.65
2023-05-05T03:44:37.431Z,3.00
2023-05-05T03:47:04.476Z,2.83
2023-05-05T03:49:34.795Z,2.40
2023-05-05T03:52:02.517Z,1.63
2023-05-05T03:54:29.643Z,3.00
2023-05-05T03:56:56.622Z,3.03
2023-05-05T03:59:23.537Z,2.30
2023-05-05T04:01:50.683Z,2.08
2023-05-05T04:04:17.653Z,1.83
2023-05-05T04:06:44.476Z,1.75
2023-05-05T04:09:12.431Z,2.22
2023-05-05T04:11:39.318Z,1.90
2023-05-05T04:14:06.748Z,2.33
2023-05-05T04:16:34.106Z,1.67
2023-05-05T04:19:00.931Z,3.75
2023-05-05T04:21:28.415Z,2.42
2023-05-05T04:23:56.422Z,2.25
2023-05-05T04:26:23.322Z,2.00
2023-05-05T04:28:50.410Z,2.70
2023-05-05T04:31:18.879Z,2.30
2023-05-05T04:33:47.265Z,4.00
2023-05-05T04:36:14.419Z,2.03
2023-05-05T04:38:41.712Z,2.78
2023-05-05T04:41:08.629Z,2.65
2023-05-05T04:43:37.722Z,2.35
2023-05-05T04:46:05.008Z,3.72
2023-05-05T04:48:34.265Z,2.38
2023-05-05T04:51:07.330Z,2.20
2023-05-05T04:53:34.655Z,2.75
2023-05-05T04:56:02.035Z,4.20
2023-05-05T04:58:29.281Z,2.10
2023-05-05T05:00:56.141Z,2.55
2023-05-05T05:03:23.197Z,2.05
2023-05-05T05:05:50.304Z,4.23
2023-05-05T05:08:18.338Z,2.50
2023-05-05T05:10:45.522Z,2.73
2023-05-05T05:13:13.034Z,2.50
2023-05-05T05:15:40.685Z,3.97
2023-05-05T05:18:07.529Z,3.35
2023-05-05T05:20:34.587Z,2.97
2023-05-05T05:23:04.526Z,3.10
2023-05-05T05:25:34.089Z,2.55
2023-05-05T05:28:08.936Z,3.47
2023-05-05T05:30:40.338Z,3.10
2023-05-05T05:33:09.197Z,3.10
2023-05-05T05:35:36.398Z,2.95
2023-05-05T05:38:04.047Z,3.70
2023-05-05T05:40:31.495Z,2.67
2023-05-05T05:42:59.432Z,3.35
2023-05-05T05:45:27.152Z,2.70
2023-05-05T05:47:53.999Z,5.00
2023-05-05T05:50:21.525Z,2.70
2023-05-05T05:52:48.716Z,2.30
2023-05-05T05:55:15.987Z,2.63
2023-05-05T05:57:43.036Z,4.28
2023-05-05T06:00:11.558Z,2.38
2023-05-05T06:02:44.938Z,2.80
2023-05-05T06:05:15.689Z,2.92
2023-05-05T06:07:44.306Z,3.00
2023-05-05T06:10:25.593Z,2.47
2023-05-05T06:12:58.906Z,2.95
2023-05-05T06:15:26.683Z,3.75
2023-05-05T06:17:53.873Z,3.80
2023-05-05T06:20:22.219Z,2.50
2023-05-05T06:22:49.289Z,2.58
2023-05-05T06:25:17.114Z,2.08
2023-05-05T06:27:44.734Z,2.47
2023-05-05T06:30:12.135Z,1.80
2023-05-05T06:32:39.420Z,2.88
2023-05-05T06:35:07.118Z,2.25
2023-05-05T06:37:33.917Z,1.73
2023-05-05T06:40:00.734Z,1.95
2023-05-05T06:42:27.674Z,3.00
2023-05-05T06:44:57.517Z,2.30
2023-05-05T06:47:24.836Z,3.88
2023-05-05T06:49:52.226Z,2.55
2023-05-05T06:52:19.610Z,4.47
2023-05-05T06:54:46.860Z,3.30
2023-05-05T06:57:14.034Z,2.58
2023-05-05T06:59:40.925Z,4.50
2023-05-05T07:02:09.701Z,2.67
2023-05-05T07:04:37.114Z,2.38
2023-05-05T07:07:04.147Z,2.67
2023-05-05T07:09:31.060Z,2.75
2023-05-05T07:11:57.950Z,2.37
2023-05-05T07:14:24.861Z,3.13
2023-05-05T07:16:52.634Z,2.42
2023-05-05T07:19:19.591Z,3.72
2023-05-05T07:21:47.219Z,4.53
2023-05-05T07:24:14.110Z,3.22
2023-05-05T07:26:41.148Z,2.20
2023-05-05T07:29:07.995Z,2.33
2023-05-05T07:31:35.853Z,2.63
2023-05-05T07:34:04.745Z,2.90
2023-05-05T07:36:32.145Z,2.55
2023-05-05T07:38:59.029Z,2.53
2023-05-05T07:41:25.870Z,2.65
2023-05-05T07:43:53.384Z,10.63
2023-05-05T07:46:20.317Z,5.00
2023-05-05T07:48:47.715Z,4.03
2023-05-05T07:51:14.594Z,3.90
2023-05-05T07:53:41.444Z,6.43
2023-05-05T07:56:09.090Z,4.80
2023-05-05T07:58:36.942Z,3.92
2023-05-05T08:01:06.470Z,3.53
2023-05-05T08:03:34.024Z,4.10
2023-05-05T08:06:09.933Z,2.67
2023-05-05T08:08:37.407Z,3.50
2023-05-05T08:11:06.289Z,4.13
2023-05-05T08:13:33.670Z,5.93
2023-05-05T08:16:00.604Z,6.15
2023-05-05T08:18:28.158Z,4.05
2023-05-05T08:20:55.734Z,3.55
2023-05-05T08:23:22.642Z,4.38
2023-05-05T08:25:50.020Z,3.33
2023-05-05T08:28:16.773Z,5.32
2023-05-05T08:30:43.969Z,4.03
2023-05-05T08:33:11.602Z,3.67
2023-05-05T08:35:39.054Z,2.85
2023-05-05T08:38:06.341Z,3.70
2023-05-05T08:40:34.819Z,1.83
2023-05-05T08:43:01.957Z,3.63
2023-05-05T08:45:30.004Z,4.15
2023-05-05T08:47:57.833Z,4.35
2023-05-05T08:50:27.248Z,2.80
2023-05-05T08:53:18.566Z,1.80
2023-05-05T08:55:52.131Z,3.25
2023-05-05T08:58:19.653Z,3.85
2023-05-05T09:00:46.713Z,4.07
2023-05-05T09:03:14.524Z,1.80
2023-05-05T09:05:42.893Z,2.63
2023-05-05T09:08:12.780Z,3.25
2023-05-05T09:10:43.411Z,4.38
2023-05-05T09:13:10.428Z,2.72
2023-05-05T09:15:38.830Z,2.28
2023-05-05T09:18:08.925Z,1.70
2023-05-05T09:20:38.025Z,3.03
2023-05-05T09:23:16.662Z,2.77
2023-05-05T09:25:45.922Z,3.20
2023-05-05T09:28:17.695Z,2.60
2023-05-05T09:30:46.542Z,2.88
2023-05-05T09:33:14.053Z,3.72
2023-05-05T09:35:55.017Z,2.75
2023-05-05T09:38:24.572Z,2.58
2023-05-05T09:40:54.372Z,2.55
2023-05-05T09:43:23.621Z,3.42
2023-05-05T09:45:51.088Z,3.65
2023-05-05T09:48:29.378Z,2.60
2023-05-05T09:50:58.327Z,4.97
2023-05-05T09:53:26.819Z,6.00
2023-05-05T09:55:58.287Z,4.65
2023-05-05T09:58:29.642Z,9.20
2023-05-05T10:00:58.377Z,6.07
2023-05-05T10:03:26.038Z,5.25
2023-05-05T10:05:57.679Z,5.82
2023-05-05T10:08:30.399Z,5.57
2023-05-05T10:11:00.440Z,5.43
2023-05-05T10:13:28.753Z,3.00
2023-05-05T10:15:57.287Z,4.07
2023-05-05T10:18:28.649Z,4.82
2023-05-05T10:21:00.499Z,3.55
2023-05-05T10:23:38.570Z,5.00
2023-05-05T10:26:08.199Z,4.93
2023-05-05T10:28:44.042Z,11.77
2023-05-05T10:31:25.979Z,3.88
2023-05-05T10:34:23.487Z,4.43
2023-05-05T10:36:51.409Z,4.93
2023-05-05T10:39:20.146Z,3.97
2023-05-05T10:41:47.590Z,2.70
2023-05-05T10:44:16.223Z,4.00
2023-05-05T10:46:44.892Z,5.18
2023-05-05T10:49:28.754Z,4.73
2023-05-05T10:52:02.162Z,3.78
2023-05-05T10:54:29.464Z,2.63
2023-05-05T10:56:57.968Z,5.85
2023-05-05T10:59:37.598Z,3.80
2023-05-05T11:02:21.049Z,5.35
2023-05-05T11:05:07.155Z,3.20
2023-05-05T11:07:37.087Z,3.80
2023-05-05T11:10:06.175Z,2.15
2023-05-05T11:12:59.893Z,3.80
2023-05-05T11:15:29.844Z,3.45
2023-05-05T11:17:58.883Z,4.70
2023-05-05T11:20:40.787Z,3.83
2023-05-05T11:23:07.715Z,3.67
2023-05-05T11:25:38.080Z,3.63
2023-05-05T11:28:13.413Z,3.03
2023-05-05T11:31:00.448Z,3.83
2023-05-05T11:33:28.417Z,2.35
2023-05-05T11:36:01.326Z,4.63
2023-05-05T11:38:47.777Z,3.30
2023-05-05T11:41:33.087Z,2.50
2023-05-05T11:44:16.035Z,3.13
2023-05-05T11:46:52.300Z,3.47
2023-05-05T11:49:32.564Z,2.25
2023-05-05T11:52:00.917Z,2.78
2023-05-05T11:54:28.823Z,3.13
2023-05-05T11:57:05.157Z,1.80
2023-05-05T11:59:33.323Z,2.92
2023-05-05T12:02:01.110Z,2.47
2023-05-05T12:04:28.413Z,2.57
2023-05-05T12:06:55.547Z,2.33
2023-05-05T12:09:23.136Z,4.05
2023-05-05T12:11:51.116Z,2.05
2023-05-05T12:14:18.438Z,3.20
2023-05-05T12:17:01.189Z,3.20
2023-05-05T12:19:30.321Z,2.53
2023-05-05T12:21:57.838Z,1.63
2023-05-05T12:24:24.878Z,2.72
2023-05-05T12:26:51.829Z,2.80
2023-05-05T12:29:29.075Z,2.60
2023-05-05T12:31:57.828Z,2.25
2023-05-05T12:34:25.281Z,3.50
2023-05-05T12:36:52.717Z,3.05
2023-05-05T12:39:19.676Z,3.17
2023-05-05T12:41:47.270Z,1.67
2023-05-05T12:44:14.491Z,1.83
2023-05-05T12:46:48.326Z,2.53
2023-05-05T12:49:15.636Z,2.30
2023-05-05T12:51:56.053Z,2.08
2023-05-05T12:54:25.052Z,1.70
2023-05-05T12:56:51.909Z,2.60
2023-05-05T12:59:21.811Z,1.60
2023-05-05T13:01:53.313Z,3.38
2023-05-05T13:04:22.793Z,1.75
2023-05-05T13:07:07.338Z,1.67
2023-05-05T13:09:34.614Z,1.45
2023-05-05T13:12:04.723Z,2.17
2023-05-05T13:14:35.109Z,2.08
2023-05-05T13:17:02.028Z,2.58
2023-05-05T13:19:29.257Z,2.60
2023-05-05T13:21:57.295Z,2.53
2023-05-05T13:24:37.885Z,1.98
2023-05-05T13:27:09.634Z,2.00
2023-05-05T13:29:36.578Z,1.58
2023-05-05T13:32:03.435Z,1.75
2023-05-05T13:34:30.478Z,1.70
2023-05-05T13:36:57.402Z,1.57
2023-05-05T13:39:24.287Z,1.05
2023-05-05T13:41:51.177Z,1.80
2023-05-05T13:44:18.062Z,1.83
2023-05-05T13:46:45.084Z,1.30
2023-05-05T13:49:12.563Z,2.03
2023-05-05T13:51:39.467Z,1.23
2023-05-05T13:54:07.486Z,1.67
2023-05-05T13:56:35.080Z,1.10
2023-05-05T13:59:02.415Z,2.90
2023-05-05T14:01:30.345Z,1.88
2023-05-05T14:03:58.078Z,1.52
2023-05-05T14:06:25.894Z,1.00
2023-05-05T14:08:52.836Z,1.88
2023-05-05T14:11:20.708Z,1.13
2023-05-05T14:13:48.082Z,1.70
2023-05-05T14:16:15.561Z,1.83
2023-05-05T14:18:42.519Z,1.25
2023-05-05T14:21:09.639Z,1.50
2023-05-05T14:23:36.506Z,1.58
2023-05-05T14:26:03.408Z,1.13
2023-05-05T14:28:30.647Z,1.30
2023-05-05T14:30:57.595Z,3.13
2023-05-05T14:33:25.609Z,1.80
2023-05-05T14:35:53.254Z,1.08
2023-05-05T14:38:20.244Z,1.58
2023-05-05T14:40:47.215Z,2.08
2023-05-05T14:43:14.380Z,1.10
2023-05-05T14:45:41.330Z,2.55
2023-05-05T14:48:08.599Z,2.55
2023-05-05T14:50:35.996Z,1.67
2023-05-05T14:53:03.329Z,1.53
2023-05-05T14:55:30.698Z,2.90
2023-05-05T14:57:58.170Z,1.17
2023-05-05T15:00:26.704Z,1.23
2023-05-05T15:02:53.692Z,6.72
2023-05-05T15:05:20.733Z,1.93
2023-05-05T15:07:47.691Z,1.77
2023-05-05T15:10:14.895Z,1.10
2023-05-05T15:12:43.100Z,1.55
2023-05-05T15:15:10.583Z,1.33
2023-05-05T15:17:38.738Z,1.13
2023-05-05T15:20:06.753Z,1.80
2023-05-05T15:22:33.895Z,1.20
2023-05-05T15:25:01.197Z,0.75
2023-05-05T15:27:28.114Z,1.17
2023-05-05T15:29:55.243Z,1.08
2023-05-05T15:32:22.150Z,1.75
2023-05-05T15:34:50.408Z,1.05
2023-05-05T15:37:17.546Z,1.33
2023-05-05T15:39:44.340Z,1.23
2023-05-05T15:42:11.160Z,1.42
2023-05-05T15:44:38.172Z,1.40
2023-05-05T15:47:06.130Z,1.52
2023-05-05T15:49:32.984Z,1.45
2023-05-05T15:51:59.878Z,1.15
2023-05-05T15:54:26.647Z,0.93
2023-05-05T15:56:53.483Z,1.25
2023-05-05T15:59:20.540Z,1.63
2023-05-05T16:01:47.610Z,1.00
2023-05-05T16:04:14.510Z,0.90
2023-05-05T16:06:41.354Z,1.35
2023-05-05T16:09:08.243Z,0.73
2023-05-05T16:11:37.151Z,1.08
2023-05-05T16:14:04.606Z,1.73
2023-05-05T16:16:31.475Z,1.77
2023-05-05T16:18:58.829Z,1.83
2023-05-05T16:21:25.817Z,1.00
2023-05-05T16:23:53.061Z,1.88
2023-05-05T16:26:20.321Z,1.40
2023-05-05T16:28:47.510Z,1.87
2023-05-05T16:31:14.894Z,2.35
2023-05-05T16:33:43.553Z,0.85
2023-05-05T16:36:14.510Z,1.50
2023-05-05T16:38:41.836Z,1.30
2023-05-05T16:41:08.698Z,1.30
2023-05-05T16:43:38.312Z,1.43
2023-05-05T16:46:06.095Z,0.50
2023-05-05T16:48:32.938Z,1.10
2023-05-05T16:50:59.842Z,0.98
2023-05-05T16:53:26.830Z,1.13
2023-05-05T16:55:54.089Z,1.30
2023-05-05T16:58:22.730Z,0.88
2023-05-05T17:00:50.220Z,1.40
2023-05-05T17:03:17.778Z,1.13
2023-05-05T17:05:48.278Z,1.20
2023-05-05T17:08:16.662Z,0.67
2023-05-05T17:10:45.278Z,1.10
2023-05-05T17:13:13.260Z,0.90
2023-05-05T17:15:40.529Z,1.50
2023-05-05T17:18:08.463Z,2.00
2023-05-05T17:20:36.393Z,1.13
2023-05-05T17:23:03.296Z,1.50
2023-05-05T17:25:30.546Z,0.90
2023-05-05T17:27:57.810Z,1.40
2023-05-05T17:30:25.198Z,1.38
2023-05-05T17:32:52.502Z,0.77
2023-05-05T17:35:19.618Z,1.50
2023-05-05T17:37:46.490Z,1.10
2023-05-05T17:40:13.483Z,1.40
2023-05-05T17:42:40.783Z,0.95
2023-05-05T17:45:08.632Z,0.90
2023-05-05T17:47:35.981Z,1.13
2023-05-05T17:50:03.426Z,0.82
2023-05-05T17:52:30.376Z,1.55
2023-05-05T17:54:57.371Z,0.93
2023-05-05T17:57:24.523Z,1.53
2023-05-05T17:59:53.477Z,0.93
2023-05-05T18:02:20.758Z,0.85
2023-05-05T18:04:48.062Z,0.95
2023-05-05T18:07:15.307Z,1.05
2023-05-05T18:09:42.879Z,0.95
2023-05-05T18:12:09.767Z,0.75
2023-05-05T18:14:36.720Z,1.38
2023-05-05T18:17:04.609Z,0.95
2023-05-05T18:19:31.621Z,2.00
2023-05-05T18:21:59.103Z,1.27
2023-05-05T18:24:27.410Z,1.67
2023-05-05T18:26:54.326Z,1.27
2023-05-05T18:29:22.132Z,0.95
2023-05-05T18:31:51.555Z,1.38
2023-05-05T18:34:19.393Z,0.90
2023-05-05T18:36:47.173Z,0.98
2023-05-05T18:39:14.700Z,1.07
2023-05-05T18:41:41.662Z,1.97
2023-05-05T18:44:08.974Z,1.33
2023-05-05T18:46:35.867Z,1.55
2023-05-05T18:49:03.564Z,0.85
2023-05-05T18:51:30.858Z,1.05
2023-05-05T18:53:57.929Z,0.77
2023-05-05T18:56:24.850Z,1.00
2023-05-05T18:58:51.781Z,1.20
2023-05-05T19:01:18.801Z,1.17
2023-05-05T19:03:48.985Z,1.20
2023-05-05T19:06:17.353Z,1.70
2023-05-05T19:08:45.510Z,1.27
2023-05-05T19:11:14.633Z,0.60
2023-05-05T19:13:42.064Z,1.13
2023-05-05T19:16:10.244Z,1.15
2023-05-05T19:18:37.517Z,0.90
2023-05-05T19:21:04.366Z,1.17
2023-05-05T19:23:31.781Z,1.63
2023-05-05T19:25:58.761Z,0.80
2023-05-05T19:28:25.997Z,0.77
2023-05-05T19:30:53.336Z,1.02
2023-05-05T19:33:20.609Z,1.20
2023-05-05T19:35:47.517Z,1.60
2023-05-05T19:38:14.894Z,1.65
2023-05-05T19:40:41.839Z,2.03
2023-05-05T19:43:09.121Z,1.77
2023-05-05T19:45:36.098Z,1.38
2023-05-05T19:48:03.009Z,1.15
2023-05-05T19:50:30.604Z,1.38
2023-05-05T19:52:58.330Z,1.97
2023-05-05T19:55:25.981Z,1.67
2023-05-05T19:57:52.932Z,1.23
2023-05-05T20:00:20.332Z,1.52
2023-05-05T20:02:49.006Z,0.90
2023-05-05T20:05:17.320Z,1.00
2023-05-05T20:07:44.945Z,0.98
2023-05-05T20:10:13.157Z,1.02
2023-05-05T20:12:47.332Z,1.15
2023-05-05T20:15:19.554Z,1.05
2023-05-05T20:17:49.904Z,1.00
2023-05-05T20:20:20.041Z,2.00
2023-05-05T20:22:48.102Z,1.70
2023-05-05T20:25:16.252Z,1.02
2023-05-05T20:27:43.563Z,2.03
2023-05-05T20:30:12.036Z,0.90
2023-05-05T20:32:39.078Z,0.90
2023-05-05T20:35:07.256Z,1.13
2023-05-05T20:37:34.267Z,1.40
2023-05-05T20:40:01.177Z,0.93
2023-05-05T20:42:29.482Z,1.38
2023-05-05T20:44:56.598Z,1.13
2023-05-05T20:47:24.148Z,0.75
2023-05-05T20:49:52.241Z,1.58
2023-05-05T20:52:19.800Z,1.20
2023-05-05T20:54:46.688Z,1.43
2023-05-05T20:57:13.513Z,1.15
2023-05-05T20:59:40.586Z,0.77
2023-05-05T21:02:08.205Z,1.37
2023-05-05T21:04:35.529Z,1.10
2023-05-05T21:07:02.923Z,1.05
2023-05-05T21:09:31.302Z,1.52
2023-05-05T21:11:58.334Z,0.90
2023-05-05T21:14:25.251Z,1.57
2023-05-05T21:16:52.092Z,1.00
2023-05-05T21:19:19.027Z,0.80
2023-05-05T21:21:46.146Z,0.98
2023-05-05T21:24:13.862Z,1.30
2023-05-05T21:26:44.947Z,1.30
2023-05-05T21:29:12.128Z,1.00
2023-05-05T21:31:39.447Z,1.00
2023-05-05T21:34:06.407Z,0.98
2023-05-05T21:36:33.808Z,1.35
2023-05-05T21:39:00.825Z,0.63
2023-05-05T21:41:27.821Z,1.38
2023-05-05T21:43:55.003Z,0.75
2023-05-05T21:46:21.904Z,1.55
2023-05-05T21:48:48.800Z,2.05
2023-05-05T21:51:15.599Z,1.05
2023-05-05T21:53:42.477Z,0.70
2023-05-05T21:56:09.414Z,1.15
2023-05-05T21:58:36.694Z,1.25
2023-05-05T22:01:03.579Z,1.25
2023-05-05T22:03:30.537Z,0.80
2023-05-05T22:05:57.539Z,1.00
2023-05-05T22:08:24.423Z,1.83
2023-05-05T22:10:52.119Z,1.13
2023-05-05T22:13:19.012Z,1.23
2023-05-05T22:15:47.521Z,0.93
2023-05-05T22:18:15.506Z,1.30
2023-05-05T22:20:42.569Z,0.68
2023-05-05T22:23:09.449Z,1.35
2023-05-05T22:25:36.360Z,0.90
2023-05-05T22:28:03.667Z,1.07
2023-05-05T22:30:30.697Z,1.15
2023-05-05T22:32:57.727Z,0.93
2023-05-05T22:35:24.909Z,0.82
2023-05-05T22:37:52.161Z,0.90
2023-05-05T22:40:19.409Z,0.70
2023-05-05T22:42:46.691Z,1.23
2023-05-05T22:45:13.948Z,3.45
2023-05-05T22:47:40.935Z,0.90
2023-05-05T22:50:09.010Z,1.02
2023-05-05T22:52:36.254Z,1.00
2023-05-05T22:55:03.202Z,1.00
2023-05-05T22:57:30.441Z,1.67
2023-05-05T22:59:57.428Z,1.87
2023-05-05T23:02:26.824Z,1.38
2023-05-05T23:04:53.974Z,0.80
2023-05-05T23:07:20.895Z,2.10
2023-05-05T23:09:49.155Z,1.07
2023-05-05T23:12:17.549Z,1.23
2023-05-05T23:14:44.763Z,1.50
2023-05-05T23:17:11.899Z,1.35
2023-05-05T23:19:38.777Z,1.88
2023-05-05T23:22:05.869Z,1.00
2023-05-05T23:24:32.790Z,1.15
2023-05-05T23:27:01.991Z,1.40
2023-05-05T23:29:29.224Z,1.10
2023-05-05T23:31:56.278Z,1.10
2023-05-05T23:34:23.201Z,0.65
2023-05-05T23:36:50.461Z,1.08
2023-05-05T23:39:17.352Z,1.10
2023-05-05T23:41:44.142Z,1.33
2023-05-05T23:44:10.968Z,0.85
2023-05-05T23:46:38.338Z,1.80
2023-05-05T23:49:05.683Z,1.20
2023-05-05T23:51:32.542Z,1.45
2023-05-05T23:53:59.535Z,2.03
2023-05-05T23:56:26.416Z,1.13
2023-05-05T23:58:53.779Z,1.17
